Time;durP1;ratioP1;P1;durP2;ratioP2;P2;SDS_P1;SDS_P2;PMS_P1;PMS_P2;Temp;Humidity;BMP_temperature;BMP_pressure;BME280_temperature;BME280_humidity;BME280_pressure;Samples;Min_cycle;Max_cycle;Signal;HPM_P1;HPM_P2
2024/01/30 00:00:10;;;;;;;1.70;1.70;;;;;;;4.45;75.55;96784.00;4332637;32;20331;-66
2024/01/30 00:02:37;;;;;;;2.73;2.53;;;;;;;4.39;75.05;96784.87;4351782;32;20212;-65
2024/01/30 00:05:05;;;;;;;2.27;2.17;;;;;;;4.32;74.86;96786.78;4344615;32;20239;-66
2024/01/30 00:07:32;;;;;;;2.03;1.93;;;;;;;4.21;75.53;96790.91;4347899;32;20345;-65
2024/01/30 00:09:57;;;;;;;1.90;1.80;;;;;;;4.30;75.10;96789.63;4325042;32;20290;-65
2024/01/30 00:12:26;;;;;;;3.00;2.77;;;;;;;4.52;74.18;96783.94;4322789;32;20369;-65
2024/01/30 00:14:52;;;;;;;2.23;2.03;;;;;;;4.25;75.06;96786.84;4295307;32;20215;-65
2024/01/30 00:17:20;;;;;;;1.93;1.83;;;;;;;4.25;75.05;96780.78;4322245;32;20340;-65
2024/01/30 00:19:47;;;;;;;4.53;2.27;;;;;;;4.30;75.44;96784.37;4324747;32;20365;-65
2024/01/30 00:22:13;;;;;;;2.83;2.37;;;;;;;4.24;75.02;96790.47;4312006;32;20298;-65
2024/01/30 00:24:39;;;;;;;2.50;2.40;;;;;;;4.07;75.94;96789.44;4300716;32;20309;-65
2024/01/30 00:27:04;;;;;;;1.53;1.53;;;;;;;4.02;76.03;96790.06;4315345;32;20310;-64
2024/01/30 00:29:33;;;;;;;1.77;1.77;;;;;;;4.06;76.11;96793.88;4338355;32;20219;-65
2024/01/30 00:32:01;;;;;;;2.53;2.43;;;;;;;4.16;75.07;96798.63;4310832;32;20317;-65
2024/01/30 00:34:27;;;;;;;2.60;2.50;;;;;;;4.09;75.70;96803.16;4342949;32;20328;-65
2024/01/30 00:36:53;;;;;;;2.37;2.17;;;;;;;4.24;74.48;96794.94;4338405;32;20369;-65
2024/01/30 00:39:19;;;;;;;4.67;2.23;;;;;;;4.11;74.50;96794.03;4309952;32;20300;-65
2024/01/30 00:41:46;;;;;;;2.27;1.77;;;;;;;4.18;74.92;96795.78;4310389;32;20216;-65
2024/01/30 00:44:11;;;;;;;3.20;3.00;;;;;;;4.04;75.08;96801.16;4320679;32;20286;-65
2024/01/30 00:46:38;;;;;;;2.33;2.23;;;;;;;4.00;75.04;96799.19;4325308;32;20375;-65
2024/01/30 00:49:04;;;;;;;2.10;2.00;;;;;;;4.11;74.64;96796.66;4352518;32;20207;-64
2024/01/30 00:51:30;;;;;;;5.03;2.53;;;;;;;4.04;74.28;96793.28;4326127;32;20294;-65
2024/01/30 00:53:55;;;;;;;2.30;1.77;;;;;;;3.99;74.52;96794.94;4337924;32;20215;-65
2024/01/30 00:56:22;;;;;;;1.70;1.60;;;;;;;3.77;74.88;96797.94;4333262;32;20281;-65
2024/01/30 00:58:47;;;;;;;2.40;1.63;;;;;;;3.86;75.32;96795.06;4343323;32;20189;-65
2024/01/30 01:01:13;;;;;;;2.47;2.27;;;;;;;3.71;75.32;96792.75;4316476;32;20284;-65
2024/01/30 01:03:40;;;;;;;2.77;2.67;;;;;;;3.89;75.01;96792.81;4317333;32;20186;-65
2024/01/30 01:06:06;;;;;;;2.10;2.00;;;;;;;3.48;75.85;96795.13;4300276;32;20248;-65
2024/01/30 01:08:31;;;;;;;2.00;1.90;;;;;;;3.26;77.09;96797.28;4341957;32;20289;-66
2024/01/30 01:10:58;;;;;;;2.10;2.00;;;;;;;3.42;77.17;96802.81;4337441;32;20185;-65
2024/01/30 01:13:26;;;;;;;1.57;1.57;;;;;;;3.64;76.26;96799.87;4340258;32;20269;-65
2024/01/30 01:15:52;;;;;;;1.83;1.53;;;;;;;3.81;75.42;96795.69;4337612;32;20304;-65
2024/01/30 01:18:18;;;;;;;1.93;1.83;;;;;;;3.59;76.07;96795.25;4337019;32;20337;-65
2024/01/30 01:20:44;;;;;;;1.97;1.83;;;;;;;3.80;75.53;96794.88;4347477;32;20324;-65
2024/01/30 01:23:11;;;;;;;3.17;1.77;;;;;;;3.72;75.89;96799.63;4332232;32;20211;-65
2024/01/30 01:25:38;;;;;;;3.07;1.50;;;;;;;3.60;76.32;96796.06;4342583;32;20388;-65
2024/01/30 01:28:05;;;;;;;1.87;1.77;;;;;;;3.51;76.90;96800.78;4346566;32;20286;-64
2024/01/30 01:30:30;;;;;;;4.73;1.80;;;;;;;3.75;76.39;96793.91;4304498;32;20342;-65
2024/01/30 01:33:02;;;;;;;2.13;1.60;;;;;;;3.82;76.02;96796.50;4301456;32;20337;-65
2024/01/30 01:35:29;;;;;;;2.10;2.00;;;;;;;3.57;76.38;96799.09;4306903;32;20305;-65
2024/01/30 01:37:54;;;;;;;2.77;2.13;;;;;;;3.50;77.20;96795.72;4307869;32;20386;-65
2024/01/30 01:40:24;;;;;;;1.70;1.70;;;;;;;3.42;77.79;96796.78;4330130;32;20295;-68
2024/01/30 01:42:54;;;;;;;2.10;1.90;;;;;;;3.73;76.66;96788.91;4304333;32;20197;-65
2024/01/30 01:45:22;;;;;;;0.90;0.90;;;;;;;3.45;77.19;96785.88;4298169;32;20294;-65
2024/01/30 01:47:51;;;;;;;1.97;1.83;;;;;;;3.75;76.56;96789.47;4326714;32;20317;-65
2024/01/30 01:50:20;;;;;;;1.73;1.63;;;;;;;3.32;77.89;96789.38;4307499;32;20286;-65
2024/01/30 01:52:50;;;;;;;1.40;1.30;;;;;;;3.45;78.13;96791.91;4337741;32;20311;-66
2024/01/30 01:55:18;;;;;;;2.93;2.83;;;;;;;3.55;77.32;96785.37;4338909;32;20317;-65
2024/01/30 01:57:49;;;;;;;1.43;1.33;;;;;;;3.74;76.21;96784.47;4309435;32;20289;-65
2024/01/30 02:00:16;;;;;;;1.60;1.53;;;;;;;3.56;76.94;96787.00;4332393;32;20286;-65
2024/01/30 02:02:45;;;;;;;1.47;1.37;;;;;;;3.45;77.08;96786.66;4328300;32;20305;-65
2024/01/30 02:05:10;;;;;;;2.87;2.67;;;;;;;3.79;76.11;96779.34;4331701;32;20277;-65
2024/01/30 02:07:38;;;;;;;1.87;1.77;;;;;;;3.71;76.17;96788.31;4328792;32;20416;-65
2024/01/30 02:10:07;;;;;;;2.50;2.30;;;;;;;3.76;76.05;96787.66;4318021;32;20204;-64
2024/01/30 02:12:33;;;;;;;2.60;2.40;;;;;;;3.42;77.35;96789.72;4313734;32;20301;-65
2024/01/30 02:15:00;;;;;;;1.87;1.57;;;;;;;3.60;76.63;96780.31;4308173;32;20282;-65
2024/01/30 02:17:28;;;;;;;4.53;2.20;;;;;;;3.55;77.03;96786.19;4317134;32;20236;-65
2024/01/30 02:19:55;;;;;;;2.47;2.27;;;;;;;3.32;77.74;96781.53;4319197;32;20391;-65
2024/01/30 02:22:21;;;;;;;2.60;2.40;;;;;;;3.23;78.17;96790.63;4308021;32;20306;-65
2024/01/30 02:24:46;;;;;;;4.13;1.27;;;;;;;3.26;78.13;96789.41;4341696;32;20276;-65
2024/01/30 02:27:14;;;;;;;1.97;1.50;;;;;;;3.32;77.85;96786.75;4338848;32;20423;-65
2024/01/30 02:29:39;;;;;;;1.60;1.50;;;;;;;3.27;78.35;96789.22;4327399;32;20258;-65
2024/01/30 02:32:08;;;;;;;1.23;1.23;;;;;;;3.33;78.08;96788.34;4336711;32;20277;-64
2024/01/30 02:34:34;;;;;;;1.60;1.50;;;;;;;3.48;77.30;96785.44;4326472;32;20224;-64
2024/01/30 02:37:01;;;;;;;2.30;1.47;;;;;;;3.29;77.70;96797.66;4320877;32;20270;-65
2024/01/30 02:39:26;;;;;;;2.07;1.97;;;;;;;3.34;78.15;96792.56;4339532;32;20263;-65
2024/01/30 02:41:52;;;;;;;2.13;1.93;;;;;;;3.38;77.60;96785.09;4337873;32;20298;-65
2024/01/30 02:44:18;;;;;;;3.17;1.37;;;;;;;3.24;78.12;96791.44;4332676;32;20255;-65
2024/01/30 02:46:44;;;;;;;2.73;2.53;;;;;;;3.18;78.82;96792.28;4314542;32;20302;-65
2024/01/30 02:49:11;;;;;;;2.10;2.00;;;;;;;3.30;78.11;96791.41;4325477;32;20185;-65
2024/01/30 02:51:36;;;;;;;1.97;1.73;;;;;;;3.16;78.73;96789.84;4341032;32;20300;-65
2024/01/30 02:54:03;;;;;;;1.63;1.63;;;;;;;3.21;78.63;96789.22;4320079;32;20342;-65
2024/01/30 02:56:28;;;;;;;1.87;1.60;;;;;;;3.00;79.01;96787.72;4340400;32;20189;-65
2024/01/30 02:58:55;;;;;;;1.43;1.43;;;;;;;2.94;80.47;96784.13;4334170;32;20401;-65
2024/01/30 03:01:21;;;;;;;2.27;1.37;;;;;;;2.85;80.88;96784.56;4344842;32;20197;-65
2024/01/30 03:03:47;;;;;;;0.90;0.90;;;;;;;3.12;79.82;96773.75;4319591;32;20286;-65
2024/01/30 03:06:15;;;;;;;1.20;1.20;;;;;;;3.29;78.49;96771.44;4317515;32;20530;-65
2024/01/30 03:08:41;;;;;;;1.80;1.53;;;;;;;3.35;78.23;96772.41;4312854;32;20201;-65
2024/01/30 03:11:08;;;;;;;1.60;1.50;;;;;;;3.43;77.77;96766.91;4315178;32;20297;-64
2024/01/30 03:13:35;;;;;;;1.33;1.33;;;;;;;3.15;78.04;96776.97;4305544;32;20294;-64
2024/01/30 03:16:00;;;;;;;1.23;1.13;;;;;;;2.80;79.66;96766.84;4341391;32;20356;-65
2024/01/30 03:18:26;;;;;;;1.80;1.70;;;;;;;2.78;80.22;96768.06;4307522;32;20278;-65
2024/01/30 03:20:51;;;;;;;1.50;1.40;;;;;;;2.95;79.50;96766.56;4331350;32;20189;-65
2024/01/30 03:23:17;;;;;;;1.87;1.77;;;;;;;3.10;78.66;96772.38;4330510;32;20247;-65
2024/01/30 03:25:43;;;;;;;1.33;1.23;;;;;;;3.29;77.63;96771.44;4323035;32;20237;-65
2024/01/30 03:28:12;;;;;;;4.77;2.03;;;;;;;3.28;77.18;96761.97;4314734;32;20369;-64
2024/01/30 03:30:38;;;;;;;1.80;1.70;;;;;;;3.32;76.58;96760.53;4322783;32;20312;-65
2024/01/30 03:33:03;;;;;;;1.20;1.20;;;;;;;3.10;77.63;96764.50;4315426;32;20298;-64
2024/01/30 03:35:28;;;;;;;1.70;1.60;;;;;;;3.10;77.36;96757.44;4334743;32;20211;-65
2024/01/30 03:37:54;;;;;;;1.50;1.40;;;;;;;2.95;77.76;96770.00;4345429;32;20205;-65
2024/01/30 03:40:22;;;;;;;1.10;1.10;;;;;;;3.18;77.02;96758.19;4327254;32;20193;-65
2024/01/30 03:42:48;;;;;;;1.57;1.47;;;;;;;3.09;76.59;96755.03;4287202;32;20313;-65
2024/01/30 03:45:19;;;;;;;0.70;0.70;;;;;;;3.32;75.66;96757.13;4305533;32;20319;-65
2024/01/30 03:47:45;;;;;;;1.00;1.00;;;;;;;3.39;75.64;96763.91;4337185;32;20300;-65
2024/01/30 03:50:10;;;;;;;1.33;1.30;;;;;;;3.39;75.40;96760.47;4329111;32;20282;-65
2024/01/30 03:52:35;;;;;;;1.43;1.43;;;;;;;3.12;76.03;96757.22;4344661;32;20219;-64
2024/01/30 03:55:01;;;;;;;1.60;1.60;;;;;;;3.25;75.89;96751.09;4310000;32;20185;-65
2024/01/30 03:57:27;;;;;;;0.83;0.83;;;;;;;3.29;75.68;96755.72;4330288;32;20230;-65
2024/01/30 03:59:55;;;;;;;0.90;0.90;;;;;;;2.91;77.08;96752.31;4342328;32;22118;-65
2024/01/30 04:02:22;;;;;;;1.50;1.40;;;;;;;3.19;76.32;96755.34;4335300;32;20273;-65
2024/01/30 04:04:47;;;;;;;1.10;1.10;;;;;;;3.00;76.63;96766.75;4330635;32;20325;-65
2024/01/30 04:07:15;;;;;;;0.60;0.60;;;;;;;3.07;76.53;96765.72;4312740;32;20293;-65
2024/01/30 04:09:40;;;;;;;1.17;1.17;;;;;;;3.15;76.04;96764.66;4315819;32;20255;-64
2024/01/30 04:12:07;;;;;;;1.50;1.50;;;;;;;3.29;75.62;96758.34;4304678;32;20291;-64
2024/01/30 04:14:32;;;;;;;3.10;1.73;;;;;;;3.28;75.66;96761.16;4311219;32;20182;-65
2024/01/30 04:16:58;;;;;;;1.77;1.67;;;;;;;2.99;76.13;96765.16;4331958;32;20309;-65
2024/01/30 04:19:24;;;;;;;0.80;0.80;;;;;;;2.76;77.67;96763.84;4314541;32;20262;-65
2024/01/30 04:21:51;;;;;;;1.53;1.30;;;;;;;2.89;77.03;96756.94;4331725;32;20239;-65
2024/01/30 04:24:18;;;;;;;1.00;1.00;;;;;;;3.21;75.70;96761.19;4317206;32;20286;-65
2024/01/30 04:26:44;;;;;;;0.93;0.93;;;;;;;2.99;76.63;96754.66;4326829;32;20385;-65
2024/01/30 04:29:09;;;;;;;1.10;1.10;;;;;;;3.10;76.01;96761.87;4323866;32;20298;-65
2024/01/30 04:31:36;;;;;;;1.17;1.07;;;;;;;3.27;75.27;96755.13;4327207;32;20192;-65
2024/01/30 04:34:05;;;;;;;1.77;1.67;;;;;;;3.21;75.06;96749.91;4319684;32;20207;-65
2024/01/30 04:36:30;;;;;;;1.13;1.03;;;;;;;3.14;75.32;96760.41;4341424;32;20297;-65
2024/01/30 04:38:58;;;;;;;3.80;1.90;;;;;;;3.23;75.26;96756.56;4329134;32;20365;-65
2024/01/30 04:41:24;;;;;;;1.43;1.20;;;;;;;2.97;76.15;96760.13;4321578;32;20284;-66
2024/01/30 04:43:49;;;;;;;0.50;0.50;;;;;;;2.93;76.11;96758.12;4330516;32;20304;-65
2024/01/30 04:46:15;;;;;;;1.00;1.00;;;;;;;3.01;76.14;96755.25;4310555;32;20272;-65
2024/01/30 04:48:43;;;;;;;8.93;2.03;;;;;;;3.12;75.26;96758.00;4323273;32;20197;-65
2024/01/30 04:51:09;;;;;;;1.13;1.13;;;;;;;2.88;75.89;96757.97;4343878;32;20399;-65
2024/01/30 04:53:35;;;;;;;0.93;0.93;;;;;;;3.09;75.61;96758.47;4334743;32;20306;-65
2024/01/30 04:56:01;;;;;;;0.80;0.80;;;;;;;2.92;75.39;96759.13;4329077;32;20225;-65
2024/01/30 04:58:28;;;;;;;1.20;1.20;;;;;;;2.88;75.98;96757.97;4330187;32;20373;-65
2024/01/30 05:00:55;;;;;;;1.43;1.37;;;;;;;2.77;76.31;96759.41;4314429;32;20232;-65
2024/01/30 05:03:22;;;;;;;1.70;1.60;;;;;;;3.10;75.58;96756.63;4342574;32;20297;-65
2024/01/30 05:05:48;;;;;;;1.37;1.37;;;;;;;2.97;75.45;96761.94;4318424;32;20304;-65
2024/01/30 05:08:13;;;;;;;1.87;1.53;;;;;;;3.07;75.67;96762.28;4340557;32;20293;-65
2024/01/30 05:10:40;;;;;;;0.83;0.83;;;;;;;2.88;75.89;96760.59;4325707;32;20217;-65
2024/01/30 05:13:05;;;;;;;1.50;1.40;;;;;;;2.75;76.64;96770.09;4310738;32;20299;-65
2024/01/30 05:15:33;;;;;;;0.93;0.93;;;;;;;2.97;76.32;96772.41;4323617;32;20298;-65
2024/01/30 05:18:00;;;;;;;1.73;1.63;;;;;;;3.00;75.49;96767.56;4336080;32;20218;-65
2024/01/30 05:20:29;;;;;;;1.97;1.50;;;;;;;2.90;75.95;96766.41;4334425;32;20388;-65
2024/01/30 05:22:54;;;;;;;1.07;1.07;;;;;;;2.90;76.70;96762.00;4334510;32;20391;-66
2024/01/30 05:25:20;;;;;;;0.80;0.80;;;;;;;2.79;77.16;96775.72;4338557;32;20286;-68
2024/01/30 05:27:47;;;;;;;1.70;1.60;;;;;;;3.09;76.30;96760.28;4292854;32;20189;-69
2024/01/30 05:30:12;;;;;;;1.97;1.40;;;;;;;2.90;76.46;96769.03;4324213;32;20212;-68
2024/01/30 05:32:40;;;;;;;0.87;0.87;;;;;;;2.70;77.69;96764.66;4322442;32;20293;-68
2024/01/30 05:35:07;;;;;;;0.97;0.97;;;;;;;3.10;76.16;96767.94;4316726;32;20209;-69
2024/01/30 05:37:33;;;;;;;0.90;0.90;;;;;;;2.65;77.09;96774.19;4322926;32;20336;-69
2024/01/30 05:39:58;;;;;;;1.30;1.20;;;;;;;3.09;75.98;96770.75;4337350;32;20284;-68
2024/01/30 05:42:24;;;;;;;1.23;1.23;;;;;;;3.12;75.60;96765.88;4323153;32;20185;-69
2024/01/30 05:44:51;;;;;;;1.20;1.10;;;;;;;3.09;76.14;96774.19;4318947;32;20243;-69
2024/01/30 05:47:18;;;;;;;1.60;0.97;;;;;;;3.23;75.30;96772.28;4329450;32;20258;-68
2024/01/30 05:49:44;;;;;;;7.43;1.80;;;;;;;3.19;75.24;96776.34;4324164;32;20274;-68
2024/01/30 05:52:10;;;;;;;0.90;0.90;;;;;;;3.07;75.80;96778.03;4322297;32;20300;-68
2024/01/30 05:54:36;;;;;;;1.83;1.23;;;;;;;3.10;75.43;96783.66;4316840;32;20297;-68
2024/01/30 05:57:02;;;;;;;2.07;1.67;;;;;;;2.88;76.45;96784.16;4358536;32;20300;-68
2024/01/30 05:59:27;;;;;;;0.97;0.97;;;;;;;3.02;75.67;96791.75;4319738;32;20341;-71
2024/01/30 06:01:54;;;;;;;1.60;1.50;;;;;;;3.14;75.42;96784.00;4337647;32;20284;-68
2024/01/30 06:04:21;;;;;;;0.90;0.90;;;;;;;3.02;75.88;96790.94;4313484;32;20217;-69
2024/01/30 06:06:47;;;;;;;0.80;0.80;;;;;;;2.90;76.02;96790.81;4336103;32;20294;-69
2024/01/30 06:09:14;;;;;;;1.10;1.10;;;;;;;3.03;76.00;96788.12;4306040;32;20337;-68
2024/01/30 06:11:39;;;;;;;1.10;1.10;;;;;;;3.04;75.23;96794.16;4320235;32;20300;-68
2024/01/30 06:14:05;;;;;;;1.83;1.73;;;;;;;3.06;75.18;96789.53;4310244;32;20233;-68
2024/01/30 06:16:30;;;;;;;1.23;1.13;;;;;;;3.16;75.08;96787.25;4344229;32;20199;-69
2024/01/30 06:18:56;;;;;;;0.87;0.87;;;;;;;3.19;75.20;96788.62;4325910;32;20190;-69
2024/01/30 06:21:24;;;;;;;1.03;0.93;;;;;;;3.19;75.16;96793.88;4306359;32;20197;-69
2024/01/30 06:23:50;;;;;;;0.90;0.90;;;;;;;3.21;74.81;96790.03;4347156;32;20224;-68
2024/01/30 06:26:15;;;;;;;1.90;1.13;;;;;;;3.09;75.32;96789.09;4351004;32;20300;-68
2024/01/30 06:28:42;;;;;;;1.47;1.37;;;;;;;3.03;76.66;96790.75;4321988;32;20305;-68
2024/01/30 06:31:08;;;;;;;1.07;0.90;;;;;;;3.04;75.96;96796.78;4325757;32;20197;-67
2024/01/30 06:33:34;;;;;;;0.67;0.67;;;;;;;3.04;76.16;96794.16;4328662;32;20316;-67
2024/01/30 06:36:02;;;;;;;3.03;1.40;;;;;;;3.03;76.14;96792.56;4331311;32;20185;-69
2024/01/30 06:38:28;;;;;;;1.00;1.00;;;;;;;3.27;74.87;96799.69;4317992;32;20281;-68
2024/01/30 06:40:54;;;;;;;0.87;0.87;;;;;;;3.32;74.59;96794.63;4298162;32;20400;-68
2024/01/30 06:43:20;;;;;;;1.00;1.00;;;;;;;3.19;74.87;96796.50;4338612;32;20225;-68
2024/01/30 06:45:46;;;;;;;1.03;1.03;;;;;;;3.12;74.88;96804.41;4318943;32;20324;-68
2024/01/30 06:48:13;;;;;;;1.03;0.97;;;;;;;3.10;75.44;96804.62;4337797;32;20188;-68
2024/01/30 06:50:38;;;;;;;2.77;1.30;;;;;;;3.15;75.35;96808.41;4325625;32;20436;-69
2024/01/30 06:53:04;;;;;;;1.07;1.07;;;;;;;3.12;74.70;96805.19;4326184;32;20297;-68
2024/01/30 06:55:31;;;;;;;1.20;1.20;;;;;;;3.07;75.48;96804.25;4341540;32;20186;-68
2024/01/30 06:57:56;;;;;;;0.80;0.80;;;;;;;3.15;75.20;96808.41;4321220;32;20199;-69
2024/01/30 07:00:23;;;;;;;1.53;1.10;;;;;;;2.84;76.13;96812.59;4341693;32;20386;-68
2024/01/30 07:02:50;;;;;;;1.03;1.00;;;;;;;3.19;75.62;96815.66;4333451;32;20194;-69
2024/01/30 07:05:17;;;;;;;1.50;1.40;;;;;;;3.17;75.25;96815.06;4304368;32;20313;-68
2024/01/30 07:07:44;;;;;;;3.40;1.40;;;;;;;3.05;75.00;96811.50;4335712;32;20372;-68
2024/01/30 07:10:09;;;;;;;1.10;1.07;;;;;;;3.11;74.92;96813.31;4346001;32;20337;-69
2024/01/30 07:12:35;;;;;;;5.90;1.17;;;;;;;3.24;74.60;96807.19;4335609;32;20459;-68
2024/01/30 07:15:03;;;;;;;1.33;1.13;;;;;;;3.48;74.93;96816.13;4303981;32;20309;-69
2024/01/30 07:17:29;;;;;;;1.10;1.10;;;;;;;3.16;74.35;96813.44;4326317;32;20235;-68
2024/01/30 07:19:55;;;;;;;1.00;1.00;;;;;;;3.16;74.38;96816.06;4346393;32;20298;-68
2024/01/30 07:22:20;;;;;;;0.93;0.93;;;;;;;3.16;75.17;96813.44;4332467;32;20347;-68
2024/01/30 07:24:47;;;;;;;2.37;1.10;;;;;;;3.34;74.87;96818.00;4310820;32;20198;-68
2024/01/30 07:27:17;;;;;;;1.63;1.53;;;;;;;3.36;73.85;96815.97;4323343;32;20197;-69
2024/01/30 07:29:42;;;;;;;0.77;0.70;;;;;;;3.59;73.42;96818.06;4301791;32;20286;-59
2024/01/30 07:32:10;;;;;;;3.60;1.67;;;;;;;7.16;100.00;96807.00;4321560;32;20282;-59
2024/01/30 07:34:37;;;;;;;1.17;1.17;;;;;;;9.80;100.00;96802.84;4316360;32;20230;-59
2024/01/30 07:37:02;;;;;;;1.10;1.10;;;;;;;9.90;90.53;96802.97;4318432;32;20289;-59
2024/01/30 07:39:30;;;;;;;1.70;1.60;;;;;;;10.96;79.58;96800.25;4330468;32;20318;-59
2024/01/30 07:42:00;;;;;;;1.70;1.50;;;;;;;12.02;70.67;96805.88;4329418;32;20281;-59
2024/01/30 07:44:26;;;;;;;1.47;1.37;;;;;;;12.51;54.47;96799.19;4323283;32;20352;-59
2024/01/30 07:46:54;;;;;;;0.97;0.97;;;;;;;12.67;52.11;96811.44;4317893;32;20200;-59
2024/01/30 07:49:23;;;;;;;1.10;1.10;;;;;;;12.59;51.26;96807.44;4323766;32;20181;-59
2024/01/30 07:51:48;;;;;;;0.53;0.53;;;;;;;12.52;50.63;96808.75;4320382;32;20260;-59
2024/01/30 07:54:17;;;;;;;0.40;0.40;;;;;;;12.59;49.87;96811.97;4316568;32;20233;-59
2024/01/30 07:56:42;;;;;;;0.83;0.63;;;;;;;12.29;51.63;96818.09;4304393;32;20267;-59
2024/01/30 07:59:11;;;;;;;1.10;1.10;;;;;;;12.09;61.57;96816.22;4332658;32;20201;-70
2024/01/30 08:01:38;;;;;;;4.23;0.83;;;;;;;10.88;50.01;96814.81;4341700;32;20180;-69
2024/01/30 08:04:04;;;;;;;0.50;0.50;;;;;;;10.04;49.25;96809.44;4345188;32;20190;-68
2024/01/30 08:06:32;;;;;;;0.80;0.80;;;;;;;8.61;51.82;96822.13;4343583;32;20251;-70
2024/01/30 08:08:59;;;;;;;1.17;0.90;;;;;;;7.95;54.25;96829.00;4349222;32;20239;-71
2024/01/30 08:11:26;;;;;;;0.93;0.93;;;;;;;7.27;56.52;96829.91;4313177;33;20244;-70
2024/01/30 08:13:57;;;;;;;1.60;0.83;;;;;;;6.69;59.05;96833.47;4310434;32;20288;-69
2024/01/30 08:16:24;;;;;;;1.07;1.07;;;;;;;6.19;61.08;96838.41;4318932;32;20300;-71
2024/01/30 08:18:50;;;;;;;0.73;0.73;;;;;;;6.03;62.86;96837.22;4349432;32;20360;-73
2024/01/30 08:21:16;;;;;;;0.90;0.90;;;;;;;5.72;64.43;96838.25;4305855;32;20295;-72
2024/01/30 08:23:42;;;;;;;0.90;0.90;;;;;;;5.48;66.09;96845.28;4303987;32;20188;-72
2024/01/30 08:26:08;;;;;;;0.50;0.50;;;;;;;5.49;66.34;96831.09;4319354;32;20348;-70
2024/01/30 08:28:34;;;;;;;4.50;0.97;;;;;;;5.51;66.55;96829.03;4329178;32;20185;-70
2024/01/30 08:31:01;;;;;;;0.97;0.97;;;;;;;5.69;66.75;96830.00;4308721;32;20243;-71
2024/01/30 08:33:29;;;;;;;0.60;0.60;;;;;;;5.74;67.36;96835.41;4337229;32;20289;-71
2024/01/30 08:35:55;;;;;;;0.97;0.97;;;;;;;5.68;67.28;96831.84;4348940;32;20359;-71
2024/01/30 08:38:21;;;;;;;0.83;0.83;;;;;;;5.82;66.83;96829.81;4328395;32;20316;-72
2024/01/30 08:40:47;;;;;;;0.47;0.47;;;;;;;5.59;67.70;96835.03;4302333;32;20219;-76
2024/01/30 08:43:12;;;;;;;1.00;1.00;;;;;;;5.76;67.84;96828.09;4297930;32;20294;-72
2024/01/30 08:45:40;;;;;;;0.67;0.67;;;;;;;5.76;67.42;96823.63;4313414;32;20255;-70
2024/01/30 08:48:08;;;;;;;0.93;0.93;;;;;;;5.99;67.43;96830.81;4327411;32;20203;-70
2024/01/30 08:50:34;;;;;;;1.10;1.10;;;;;;;5.84;67.18;96830.37;4327275;32;20365;-67
2024/01/30 08:53:02;;;;;;;0.57;0.57;;;;;;;6.16;67.13;96825.69;4332832;32;20288;-71
2024/01/30 08:55:28;;;;;;;1.67;1.57;;;;;;;5.92;68.02;96835.38;4338036;32;20282;-71
2024/01/30 08:57:55;;;;;;;2.47;1.40;;;;;;;5.92;68.26;96824.03;4312394;32;20396;-71
2024/01/30 09:00:20;;;;;;;0.97;0.80;;;;;;;5.99;68.46;96833.44;4321325;32;20239;-72
2024/01/30 09:02:46;;;;;;;0.43;0.43;;;;;;;6.11;67.89;96834.25;4310597;32;20290;-72
2024/01/30 09:05:13;;;;;;;5.50;1.40;;;;;;;6.19;68.06;96836.56;4312386;32;20198;-71
2024/01/30 09:07:39;;;;;;;1.33;0.93;;;;;;;6.25;67.89;96828.75;4332046;32;20320;-70
2024/01/30 09:10:05;;;;;;;0.80;0.80;;;;;;;6.34;68.37;96833.47;4319276;32;20295;-72
2024/01/30 09:12:30;;;;;;;1.10;1.00;;;;;;;6.42;68.08;96833.16;4329057;32;20212;-72
2024/01/30 09:14:59;;;;;;;1.13;1.13;;;;;;;6.60;67.19;96837.50;4283506;32;20348;-71
2024/01/30 09:17:25;;;;;;;0.93;0.93;;;;;;;6.63;66.71;96844.94;4285512;32;20205;-72
2024/01/30 09:19:51;;;;;;;0.67;0.67;;;;;;;6.71;66.01;96843.78;4312944;32;20277;-72
2024/01/30 09:22:18;;;;;;;2.17;1.30;;;;;;;6.71;66.92;96841.94;4329357;32;20210;-72
2024/01/30 09:24:44;;;;;;;1.60;1.50;;;;;;;6.81;66.17;96847.44;4327016;32;20398;-73
2024/01/30 09:27:10;;;;;;;6.40;1.57;;;;;;;6.88;66.17;96852.56;4325140;32;20291;-72
2024/01/30 09:29:36;;;;;;;0.70;0.70;;;;;;;7.04;65.85;96846.63;4330920;32;20308;-71
2024/01/30 09:32:01;;;;;;;6.77;1.10;;;;;;;7.29;64.69;96845.50;4322262;33;20209;-73
2024/01/30 09:34:28;;;;;;;0.40;0.40;;;;;;;7.48;62.44;96855.63;4328189;32;20194;-72
2024/01/30 09:36:53;;;;;;;0.80;0.80;;;;;;;7.75;60.74;96839.22;4295057;32;20344;-71
2024/01/30 09:39:20;;;;;;;1.60;0.80;;;;;;;7.80;60.72;96853.34;4320110;32;20383;-72
2024/01/30 09:41:50;;;;;;;0.73;0.73;;;;;;;7.93;59.78;96857.50;4297925;32;20218;-71
2024/01/30 09:44:20;;;;;;;1.67;1.57;;;;;;;8.09;59.31;96851.47;4334836;32;20281;-71
2024/01/30 09:46:50;;;;;;;0.90;0.90;;;;;;;8.34;58.55;96853.72;4339321;32;20278;-73
2024/01/30 09:49:17;;;;;;;0.90;0.83;;;;;;;8.23;58.49;96858.03;4304337;32;20314;-71
2024/01/30 09:51:45;;;;;;;1.17;1.10;;;;;;;8.57;55.55;96860.69;4316729;32;20209;-73
2024/01/30 09:54:13;;;;;;;0.60;0.60;;;;;;;8.72;54.36;96860.13;4335446;32;20195;-73
2024/01/30 09:56:39;;;;;;;0.73;0.73;;;;;;;8.80;53.22;96857.06;4335311;32;20264;-76
2024/01/30 09:59:04;;;;;;;0.70;0.70;;;;;;;8.96;52.43;96857.00;4321900;32;20188;-71
2024/01/30 10:01:31;;;;;;;0.67;0.67;;;;;;;8.88;54.10;96854.00;4320962;32;20224;-71
2024/01/30 10:03:58;;;;;;;0.50;0.50;;;;;;;8.83;53.71;96851.28;4343108;32;20223;-69
2024/01/30 10:06:26;;;;;;;0.73;0.73;;;;;;;8.76;55.20;96855.94;4336476;32;20275;-72
2024/01/30 10:08:52;;;;;;;1.27;1.00;;;;;;;8.76;54.89;96855.94;4347149;32;20262;-71
2024/01/30 10:11:19;;;;;;;0.30;0.30;;;;;;;8.91;53.07;96853.50;4331246;32;20205;-70
2024/01/30 10:13:46;;;;;;;1.13;1.00;;;;;;;8.98;53.98;96850.66;4297660;33;20190;-72
2024/01/30 10:16:15;;;;;;;0.60;0.60;;;;;;;9.00;53.85;96845.94;4318411;32;20201;-70
2024/01/30 10:18:41;;;;;;;0.63;0.43;;;;;;;8.99;54.29;96842.50;4321708;32;20219;-71
2024/01/30 10:21:08;;;;;;;1.83;1.13;;;;;;;8.95;54.91;96839.53;4319406;32;20190;-76
2024/01/30 10:23:36;;;;;;;4.63;0.77;;;;;;;8.98;54.22;96842.72;4307254;32;20198;-70
2024/01/30 10:26:04;;;;;;;1.07;0.40;;;;;;;9.10;54.31;96838.94;4353328;32;20203;-72
2024/01/30 10:28:30;;;;;;;0.97;0.87;;;;;;;9.34;50.72;96831.56;4349062;32;20217;-72
2024/01/30 10:30:59;;;;;;;0.80;0.70;;;;;;;9.41;50.80;96836.63;4352366;32;20235;-73
2024/01/30 10:33:27;;;;;;;1.13;0.77;;;;;;;9.30;52.17;96836.53;4352544;32;20194;-73
2024/01/30 10:36:03;;;;;;;0.67;0.67;;;;;;;9.40;51.20;96830.53;4332189;32;20276;-71
2024/01/30 10:38:33;;;;;;;0.67;0.67;;;;;;;9.42;50.86;96825.78;4321812;32;20257;-71
2024/01/30 10:41:00;;;;;;;0.50;0.47;;;;;;;9.45;51.13;96825.31;4318232;32;20181;-72
2024/01/30 10:43:41;;;;;;;0.70;0.70;;;;;;;9.62;48.93;96823.37;4349969;32;20200;-71
2024/01/30 10:46:12;;;;;;;0.77;0.77;;;;;;;9.70;47.61;96819.47;4326055;32;20323;-71
2024/01/30 10:48:44;;;;;;;0.40;0.40;;;;;;;9.72;48.87;96813.94;4351266;32;20227;-70
2024/01/30 10:51:12;;;;;;;1.37;1.27;;;;;;;9.81;47.98;96801.81;4315972;32;20190;-70
2024/01/30 10:53:39;;;;;;;0.43;0.43;;;;;;;9.71;49.55;96804.38;4324301;32;20201;-71
2024/01/30 10:56:06;;;;;;;0.70;0.70;;;;;;;9.67;50.15;96803.28;4323150;32;20204;-68
2024/01/30 10:58:33;;;;;;;1.03;0.63;;;;;;;9.66;50.02;96797.16;4301827;32;20235;-70
2024/01/30 11:01:00;;;;;;;1.00;0.40;;;;;;;9.55;50.41;96801.59;4327241;32;20277;-73
2024/01/30 11:03:31;;;;;;;1.07;0.87;;;;;;;9.45;51.71;96796.16;4315267;32;20198;-72
2024/01/30 11:06:01;;;;;;;0.57;0.50;;;;;;;9.70;49.15;96787.69;4303575;32;20220;-72
2024/01/30 11:08:28;;;;;;;6.97;1.30;;;;;;;9.70;49.62;96792.97;4334171;32;20205;-72
2024/01/30 11:10:59;;;;;;;0.70;0.70;;;;;;;9.82;48.41;96784.84;4303836;32;20271;-71
2024/01/30 11:13:30;;;;;;;0.50;0.50;;;;;;;9.80;48.57;96785.09;4327214;32;20438;-72
2024/01/30 11:15:55;;;;;;;0.50;0.50;;;;;;;9.83;48.64;96784.59;4328127;32;20261;-71
2024/01/30 11:18:31;;;;;;;1.07;0.97;;;;;;;9.81;49.29;96778.75;4321778;32;20202;-71
2024/01/30 11:21:03;;;;;;;0.93;0.80;;;;;;;9.86;48.47;96776.16;4307039;32;20295;-71
2024/01/30 11:23:33;;;;;;;0.20;0.20;;;;;;;9.97;47.33;96777.84;4320370;32;20247;-71
2024/01/30 11:26:00;;;;;;;0.80;0.80;;;;;;;10.07;46.95;96773.66;4286255;33;20193;-71
2024/01/30 11:28:33;;;;;;;1.50;0.63;;;;;;;10.14;46.94;96774.25;4323966;32;20252;-71
2024/01/30 11:31:06;;;;;;;0.17;0.17;;;;;;;10.19;47.12;96769.81;4323021;32;20190;-71
2024/01/30 11:33:34;;;;;;;0.60;0.50;;;;;;;10.15;47.38;96768.69;4322727;32;20189;-71
2024/01/30 11:36:01;;;;;;;0.60;0.60;;;;;;;10.35;45.47;96762.78;4308904;32;20347;-71
2024/01/30 11:38:27;;;;;;;0.30;0.30;;;;;;;10.41;45.36;96761.72;4309412;32;20223;-72